Time;durP1;ratioP1;P1;durP2;ratioP2;P2;SDS_P1;SDS_P2;PMS_P1;PMS_P2;Temp;Humidity;BMP_temperature;BMP_pressure;BME280_temperature;BME280_humidity;BME280_pressure;Samples;Min_cycle;Max_cycle;Signal;HPM_P1;HPM_P2
2023/11/01 00:00:43;;;;;;;0.20;0.20;;;;;;;;;;4967945;28;20521;-88
2023/11/01 00:03:09;;;;;;;0.20;0.00;;;;;;;;;;4954190;28;20049;-87
2023/11/01 00:05:35;;;;;;;0.20;0.10;;;;;;;;;;4967856;28;20577;-86
2023/11/01 00:08:01;;;;;;;0.30;0.10;;;;;;;;;;4947987;28;20516;-87
2023/11/01 00:10:27;;;;;;;0.20;0.08;;;;;;;;;;4954348;28;20045;-88
2023/11/01 00:12:53;;;;;;;0.40;0.40;;;;;;;;;;4969676;28;20042;-88
2023/11/01 00:15:19;;;;;;;0.20;0.00;;;;;;;;;;4948524;28;20050;-88
2023/11/01 00:17:46;;;;;;;0.20;0.10;;;;;;;;;;4968868;28;20053;-87
2023/11/01 00:20:12;;;;;;;0.20;0.10;;;;;;;;;;4968920;28;20038;-88
2023/11/01 00:22:38;;;;;;;0.20;0.00;;;;;;;;;;4966867;28;20039;-89
2023/11/01 00:25:10;;;;;;;0.20;0.10;;;;;;;;;;4960681;28;20062;-87
2023/11/01 00:27:36;;;;;;;0.20;0.10;;;;;;;;;;4969489;28;20042;-88
2023/11/01 00:30:02;;;;;;;0.38;0.38;;;;;;;;;;4968484;28;20038;-87
2023/11/01 00:32:28;;;;;;;0.20;0.10;;;;;;;;;;4955170;28;20042;-87
2023/11/01 00:34:54;;;;;;;0.20;0.10;;;;;;;;;;4966137;28;20050;-88
2023/11/01 00:37:20;;;;;;;1.85;0.43;;;;;;;;;;4967174;28;20048;-88
2023/11/01 00:39:46;;;;;;;0.35;0.20;;;;;;;;;;4967046;28;20133;-86
2023/11/01 00:42:15;;;;;;;1.75;0.20;;;;;;;;;;4953715;28;20053;-88
2023/11/01 00:44:41;;;;;;;0.20;0.10;;;;;;;;;;4957546;28;20127;-87
2023/11/01 00:47:07;;;;;;;0.20;0.17;;;;;;;;;;4965582;28;20042;-86
2023/11/01 00:49:34;;;;;;;0.38;0.20;;;;;;;;;;4964181;28;20050;-87
2023/11/01 00:52:03;;;;;;;0.20;0.10;;;;;;;;;;4965780;28;20129;-86
2023/11/01 00:54:29;;;;;;;0.68;0.40;;;;;;;;;;4967809;28;20044;-87
2023/11/01 00:56:55;;;;;;;0.82;0.32;;;;;;;;;;4958358;28;20101;-86
2023/11/01 00:59:24;;;;;;;0.20;0.20;;;;;;;;;;4966614;28;20049;-88
2023/11/01 01:01:50;;;;;;;0.20;0.00;;;;;;;;;;4960007;28;20488;-86
2023/11/01 01:04:16;;;;;;;0.30;0.30;;;;;;;;;;4951731;28;20030;-87
2023/11/01 01:06:42;;;;;;;0.20;0.15;;;;;;;;;;4964280;28;20089;-88
2023/11/01 01:09:08;;;;;;;0.20;0.10;;;;;;;;;;4954487;28;20088;-89
2023/11/01 01:11:35;;;;;;;0.20;0.10;;;;;;;;;;4954581;28;20070;-88
2023/11/01 01:14:01;;;;;;;0.20;0.20;;;;;;;;;;4955732;28;20102;-88
2023/11/01 01:16:27;;;;;;;0.20;0.10;;;;;;;;;;4965276;28;20050;-86
2023/11/01 01:18:53;;;;;;;1.20;0.20;;;;;;;;;;4967734;28;20121;-85
2023/11/01 01:21:22;;;;;;;0.20;0.10;;;;;;;;;;4951569;28;20046;-86
2023/11/01 01:23:53;;;;;;;0.20;0.20;;;;;;;;;;4953346;28;20058;-87
2023/11/01 01:26:19;;;;;;;0.20;0.10;;;;;;;;;;4971370;28;20406;-85
2023/11/01 01:28:48;;;;;;;0.20;0.10;;;;;;;;;;4970964;28;20035;-87
2023/11/01 01:31:14;;;;;;;0.30;0.20;;;;;;;;;;4958870;28;20073;-86
2023/11/01 01:33:44;;;;;;;0.50;0.40;;;;;;;;;;4968960;28;20042;-84
2023/11/01 01:36:11;;;;;;;0.50;0.38;;;;;;;;;;4964438;28;20549;-85
2023/11/01 01:38:37;;;;;;;0.20;0.10;;;;;;;;;;4949161;28;20670;-85
2023/11/01 01:41:03;;;;;;;0.52;0.52;;;;;;;;;;4966474;28;20137;-85
2023/11/01 01:43:29;;;;;;;0.20;0.10;;;;;;;;;;4952875;28;20046;-86
2023/11/01 01:46:03;;;;;;;0.20;0.10;;;;;;;;;;4967518;28;20552;-85
2023/11/01 01:48:32;;;;;;;0.20;0.13;;;;;;;;;;4970174;28;20053;-85
2023/11/01 01:50:58;;;;;;;0.20;0.00;;;;;;;;;;4956415;28;20042;-86
2023/11/01 01:53:24;;;;;;;0.20;0.05;;;;;;;;;;4967191;28;20121;-86
2023/11/01 01:55:54;;;;;;;0.20;0.10;;;;;;;;;;4960293;28;20047;-84
2023/11/01 01:58:25;;;;;;;0.20;0.00;;;;;;;;;;4949308;28;20085;-85
2023/11/01 02:00:52;;;;;;;0.20;0.10;;;;;;;;;;4950398;28;20047;-86
2023/11/01 02:03:18;;;;;;;0.20;0.10;;;;;;;;;;4954497;28;20659;-85
2023/11/01 02:05:44;;;;;;;0.43;0.43;;;;;;;;;;4964985;28;20125;-84
2023/11/01 02:08:11;;;;;;;0.20;0.00;;;;;;;;;;4963196;28;20038;-84
2023/11/01 02:10:40;;;;;;;0.20;0.00;;;;;;;;;;4965285;28;20090;-85
2023/11/01 02:13:11;;;;;;;0.22;0.08;;;;;;;;;;4965918;28;20069;-85
2023/11/01 02:15:37;;;;;;;0.20;0.10;;;;;;;;;;4964570;28;20593;-85
2023/11/01 02:18:03;;;;;;;0.20;0.10;;;;;;;;;;4966200;28;20038;-84
2023/11/01 02:20:40;;;;;;;0.20;0.10;;;;;;;;;;4950769;28;20046;-85
2023/11/01 02:23:10;;;;;;;0.38;0.22;;;;;;;;;;4955495;28;20038;-86
2023/11/01 02:25:36;;;;;;;0.25;0.22;;;;;;;;;;4950212;28;20058;-85
2023/11/01 02:28:03;;;;;;;0.20;0.08;;;;;;;;;;4964101;28;20050;-85
2023/11/01 02:30:29;;;;;;;0.20;0.10;;;;;;;;;;4961525;28;20081;-86
2023/11/01 02:32:55;;;;;;;0.20;0.10;;;;;;;;;;4969846;28;20066;-86
2023/11/01 02:35:21;;;;;;;0.20;0.10;;;;;;;;;;4967123;28;20584;-86
2023/11/01 02:37:50;;;;;;;0.20;0.10;;;;;;;;;;4963884;28;20069;-85
2023/11/01 02:40:17;;;;;;;0.20;0.13;;;;;;;;;;4968081;28;20038;-85
2023/11/01 02:42:43;;;;;;;0.20;0.10;;;;;;;;;;4955854;28;20077;-85
2023/11/01 02:45:09;;;;;;;0.20;0.00;;;;;;;;;;4967151;28;20515;-85
2023/11/01 02:47:36;;;;;;;0.20;0.10;;;;;;;;;;4964849;28;20518;-84
2023/11/01 02:50:05;;;;;;;0.20;0.20;;;;;;;;;;4964420;28;20041;-85
2023/11/01 02:52:32;;;;;;;0.20;0.10;;;;;;;;;;4951373;28;20053;-85
2023/11/01 02:55:01;;;;;;;0.20;0.15;;;;;;;;;;4968740;28;20050;-85
2023/11/01 02:57:27;;;;;;;0.35;0.35;;;;;;;;;;4966556;28;20050;-85
2023/11/01 02:59:55;;;;;;;0.50;0.30;;;;;;;;;;4963536;28;20093;-85
2023/11/01 03:02:22;;;;;;;0.20;0.00;;;;;;;;;;4955766;28;20043;-85
2023/11/01 03:04:48;;;;;;;0.20;0.00;;;;;;;;;;4955725;28;20098;-85
2023/11/01 03:07:16;;;;;;;0.20;0.03;;;;;;;;;;4970067;28;20046;-86
2023/11/01 03:09:43;;;;;;;0.20;0.03;;;;;;;;;;4968459;28;20089;-86
2023/11/01 03:12:09;;;;;;;0.20;0.08;;;;;;;;;;4950469;28;20038;-85
2023/11/01 03:14:38;;;;;;;0.52;0.40;;;;;;;;;;4967911;28;20049;-86
2023/11/01 03:17:05;;;;;;;0.20;0.10;;;;;;;;;;4968329;28;20050;-85
2023/11/01 03:19:33;;;;;;;0.20;0.10;;;;;;;;;;4949973;28;20122;-85
2023/11/01 03:22:06;;;;;;;0.60;0.20;;;;;;;;;;4964962;28;20034;-86
2023/11/01 03:24:32;;;;;;;0.20;0.10;;;;;;;;;;4953487;28;20650;-85
2023/11/01 03:26:58;;;;;;;0.20;0.10;;;;;;;;;;4970910;28;20050;-85
2023/11/01 03:29:24;;;;;;;0.65;0.63;;;;;;;;;;4968835;28;20206;-86
2023/11/01 03:31:53;;;;;;;0.20;0.00;;;;;;;;;;4956305;28;20501;-87
2023/11/01 03:34:26;;;;;;;0.20;0.10;;;;;;;;;;4969105;28;20034;-86
2023/11/01 03:36:55;;;;;;;0.20;0.08;;;;;;;;;;4968173;28;20101;-87
2023/11/01 03:39:24;;;;;;;0.20;0.08;;;;;;;;;;4951816;28;20042;-87
2023/11/01 03:42:01;;;;;;;0.20;0.17;;;;;;;;;;4967117;28;20042;-88
2023/11/01 03:44:33;;;;;;;0.20;0.00;;;;;;;;;;4967846;28;20061;-87
2023/11/01 03:46:59;;;;;;;0.20;0.00;;;;;;;;;;4968682;28;20126;-87
2023/11/01 03:49:29;;;;;;;0.35;0.17;;;;;;;;;;4955517;28;20045;-87
2023/11/01 03:52:05;;;;;;;0.20;0.10;;;;;;;;;;4953549;28;20039;-87
2023/11/01 03:54:34;;;;;;;0.20;0.00;;;;;;;;;;4967038;28;20038;-85
2023/11/01 03:57:01;;;;;;;0.30;0.10;;;;;;;;;;4963952;28;20054;-86
2023/11/01 03:59:35;;;;;;;0.20;0.03;;;;;;;;;;4967781;28;20050;-87
2023/11/01 04:02:04;;;;;;;0.20;0.20;;;;;;;;;;4960886;28;20042;-87
2023/11/01 04:04:38;;;;;;;0.50;0.47;;;;;;;;;;4967527;28;20055;-85
2023/11/01 04:07:06;;;;;;;0.20;0.00;;;;;;;;;;4965333;28;20042;-86
2023/11/01 04:09:38;;;;;;;0.20;0.10;;;;;;;;;;4952047;28;20073;-86
2023/11/01 04:12:10;;;;;;;0.52;0.30;;;;;;;;;;4952750;28;20537;-88
2023/11/01 04:14:36;;;;;;;1.30;0.57;;;;;;;;;;4953527;28;20074;-88
2023/11/01 04:17:05;;;;;;;0.20;0.10;;;;;;;;;;4956513;28;20117;-86
2023/11/01 04:19:31;;;;;;;0.20;0.03;;;;;;;;;;4969830;28;20188;-86
2023/11/01 04:21:58;;;;;;;0.20;0.10;;;;;;;;;;4968227;28;20043;-86
2023/11/01 04:24:47;;;;;;;0.20;0.10;;;;;;;;;;4967039;28;20061;-88
2023/11/01 04:27:17;;;;;;;0.20;0.10;;;;;;;;;;4967827;28;20136;-87
2023/11/01 04:29:54;;;;;;;0.20;0.00;;;;;;;;;;4966006;28;20038;-86
2023/11/01 04:32:28;;;;;;;0.20;0.10;;;;;;;;;;4954129;28;20074;-87
2023/11/01 04:34:59;;;;;;;0.20;0.03;;;;;;;;;;4959134;28;20050;-85
2023/11/01 04:37:29;;;;;;;0.45;0.38;;;;;;;;;;4956721;28;20065;-86
2023/11/01 04:40:18;;;;;;;0.65;0.45;;;;;;;;;;4968688;28;20543;-86
2023/11/01 04:42:59;;;;;;;0.20;0.00;;;;;;;;;;4956681;28;20050;-86
2023/11/01 04:45:25;;;;;;;0.20;0.08;;;;;;;;;;4970345;28;20082;-87
2023/11/01 04:47:57;;;;;;;0.20;0.10;;;;;;;;;;4971136;28;20043;-87
2023/11/01 04:50:37;;;;;;;0.20;0.10;;;;;;;;;;4972645;28;20044;-88
2023/11/01 04:53:11;;;;;;;1.10;0.70;;;;;;;;;;4959579;28;20123;-87
2023/11/01 04:55:37;;;;;;;0.20;0.10;;;;;;;;;;4971923;28;20053;-85
2023/11/01 05:01:41;;;;;;;0.20;0.00;;;;;;;;;;4972514;28;20154;-87
2023/11/01 05:04:24;;;;;;;0.20;0.00;;;;;;;;;;4956606;28;20054;-87
2023/11/01 05:07:02;;;;;;;0.20;0.17;;;;;;;;;;4958597;28;20103;-88
2023/11/01 05:09:33;;;;;;;0.20;0.08;;;;;;;;;;4953670;28;20043;-86
2023/11/01 05:12:14;;;;;;;0.20;0.10;;;;;;;;;;4950940;28;20038;-87
2023/11/01 05:14:40;;;;;;;0.43;0.43;;;;;;;;;;4956947;28;20496;-88
2023/11/01 05:17:06;;;;;;;0.20;0.00;;;;;;;;;;4956501;28;20050;-85
2023/11/01 05:19:33;;;;;;;0.20;0.10;;;;;;;;;;4965938;28;20065;-85
2023/11/01 05:22:02;;;;;;;0.20;0.10;;;;;;;;;;4967269;28;20039;-85
2023/11/01 05:24:28;;;;;;;0.20;0.10;;;;;;;;;;4955865;28;20056;-84
2023/11/01 05:27:02;;;;;;;0.20;0.13;;;;;;;;;;4955837;28;20039;-88
2023/11/01 05:29:32;;;;;;;0.20;0.10;;;;;;;;;;4969145;28;20042;-87
2023/11/01 05:31:58;;;;;;;0.20;0.00;;;;;;;;;;4986815;28;20418;-86
2023/11/01 05:34:26;;;;;;;0.20;0.10;;;;;;;;;;4968269;28;20451;-86
2023/11/01 05:37:35;;;;;;;0.20;0.00;;;;;;;;;;4979970;28;20124;-88
2023/11/01 05:40:12;;;;;;;0.20;0.00;;;;;;;;;;4953077;28;20567;-85
2023/11/01 05:42:47;;;;;;;0.20;0.00;;;;;;;;;;4954197;28;20049;-87
2023/11/01 05:45:16;;;;;;;0.20;0.00;;;;;;;;;;5035210;23;20056;-85
2023/11/01 05:47:49;;;;;;;0.20;0.00;;;;;;;;;;4990709;28;20045;-84
2023/11/01 05:50:15;;;;;;;;;;;;;;;;;;5011892;28;20042;-84
2023/11/01 05:52:41;;;;;;;0.40;0.20;;;;;;;;;;5000850;28;19921;-83
2023/11/01 05:55:08;;;;;;;0.20;0.10;;;;;;;;;;4979834;28;20049;-83
2023/11/01 05:57:36;;;;;;;0.20;0.00;;;;;;;;;;5004262;28;20050;-83
2023/11/01 06:00:08;;;;;;;0.20;0.00;;;;;;;;;;5002420;28;20040;-85
2023/11/01 06:02:35;;;;;;;0.20;0.00;;;;;;;;;;4979769;28;20056;-83
2023/11/01 06:05:01;;;;;;;0.20;0.03;;;;;;;;;;4991705;28;20054;-83
2023/11/01 06:07:27;;;;;;;0.20;0.00;;;;;;;;;;4976047;28;20045;-84
2023/11/01 06:09:53;;;;;;;0.20;0.10;;;;;;;;;;4989510;28;20651;-84
2023/11/01 06:12:21;;;;;;;0.20;0.00;;;;;;;;;;5002425;28;20033;-83
2023/11/01 06:14:47;;;;;;;0.25;0.15;;;;;;;;;;5002418;28;20041;-84
2023/11/01 06:17:13;;;;;;;0.20;0.00;;;;;;;;;;5003085;28;20041;-84
2023/11/01 06:19:39;;;;;;;0.20;0.10;;;;;;;;;;4984258;28;20539;-84
2023/11/01 06:22:05;;;;;;;0.20;0.20;;;;;;;;;;5002346;28;20379;-83
2023/11/01 06:24:32;;;;;;;0.20;0.10;;;;;;;;;;5001039;28;20065;-83
2023/11/01 06:26:59;;;;;;;0.20;0.10;;;;;;;;;;5000978;28;20030;-83
2023/11/01 06:29:25;;;;;;;0.20;0.00;;;;;;;;;;5006843;28;20322;-84
2023/11/01 06:31:51;;;;;;;0.20;0.10;;;;;;;;;;5015917;28;20073;-84
2023/11/01 06:34:17;;;;;;;0.20;0.10;;;;;;;;;;5004879;28;20324;-85
2023/11/01 06:36:45;;;;;;;0.20;0.08;;;;;;;;;;5007527;28;20061;-83
2023/11/01 06:39:11;;;;;;;0.20;0.10;;;;;;;;;;4995635;28;20495;-84
2023/11/01 06:41:37;;;;;;;0.20;0.10;;;;;;;;;;5021499;28;20111;-84
2023/11/01 06:44:08;;;;;;;0.20;0.10;;;;;;;;;;5006824;28;20732;-84
2023/11/01 06:46:35;;;;;;;0.20;0.10;;;;;;;;;;5008914;28;20465;-84
2023/11/01 06:49:01;;;;;;;0.20;0.03;;;;;;;;;;5002532;28;20038;-84
2023/11/01 06:51:27;;;;;;;0.20;0.10;;;;;;;;;;5009556;28;20088;-84
2023/11/01 06:53:53;;;;;;;0.20;0.00;;;;;;;;;;5012904;28;20045;-84
2023/11/01 06:56:19;;;;;;;0.20;0.20;;;;;;;;;;5009866;28;20052;-85
2023/11/01 06:58:45;;;;;;;0.20;0.10;;;;;;;;;;5007772;28;20516;-85
2023/11/01 07:01:11;;;;;;;0.40;0.30;;;;;;;;;;5007310;28;20136;-84
2023/11/01 07:03:37;;;;;;;0.20;0.00;;;;;;;;;;5006734;28;20429;-84
2023/11/01 07:06:04;;;;;;;0.22;0.22;;;;;;;;;;5006249;28;20034;-85
2023/11/01 07:08:30;;;;;;;0.20;0.10;;;;;;;;;;5010767;28;20128;-82
2023/11/01 07:10:56;;;;;;;0.20;0.10;;;;;;;;;;5026416;28;20124;-83
2023/11/01 07:13:22;;;;;;;0.20;0.15;;;;;;;;;;5025124;28;20042;-83
2023/11/01 07:15:48;;;;;;;0.20;0.00;;;;;;;;;;5005072;28;20560;-83
2023/11/01 07:18:15;;;;;;;0.20;0.10;;;;;;;;;;5018240;28;21241;-84
2023/11/01 07:20:41;;;;;;;0.20;0.13;;;;;;;;;;5013568;28;20128;-83
2023/11/01 07:23:07;;;;;;;0.20;0.00;;;;;;;;;;5023191;28;20045;-84
2023/11/01 07:25:33;;;;;;;0.20;0.10;;;;;;;;;;5006918;28;20045;-83
2023/11/01 07:27:59;;;;;;;0.20;0.10;;;;;;;;;;5011595;28;20033;-84
2023/11/01 07:30:25;;;;;;;0.20;0.10;;;;;;;;;;5010358;28;20061;-84
2023/11/01 07:32:52;;;;;;;0.20;0.00;;;;;;;;;;5008583;28;20083;-82
2023/11/01 07:35:18;;;;;;;0.20;0.10;;;;;;;;;;5008682;28;20045;-83
2023/11/01 07:37:44;;;;;;;0.20;0.10;;;;;;;;;;5006216;28;20042;-83
2023/11/01 07:40:10;;;;;;;0.20;0.00;;;;;;;;;;5013199;28;20041;-83
2023/11/01 07:42:38;;;;;;;0.20;0.00;;;;;;;;;;5009538;28;20049;-83
2023/11/01 07:45:05;;;;;;;0.20;0.10;;;;;;;;;;5007989;28;20464;-83
2023/11/01 07:47:31;;;;;;;0.20;0.00;;;;;;;;;;5024972;28;20040;-82
2023/11/01 07:49:57;;;;;;;0.20;0.00;;;;;;;;;;5003184;28;20191;-82
2023/11/01 07:52:23;;;;;;;0.30;0.30;;;;;;;;;;5016188;28;20037;-83
2023/11/01 07:54:49;;;;;;;0.25;0.15;;;;;;;;;;5006623;28;20041;-82
2023/11/01 07:57:16;;;;;;;0.20;0.10;;;;;;;;;;5007973;28;20056;-83
2023/11/01 07:59:42;;;;;;;0.20;0.17;;;;;;;;;;5011149;28;20046;-83
2023/11/01 08:02:08;;;;;;;0.43;0.15;;;;;;;;;;5011637;28;20049;-82
2023/11/01 08:04:34;;;;;;;0.20;0.00;;;;;;;;;;5005328;28;20042;-83
2023/11/01 08:07:00;;;;;;;0.20;0.10;;;;;;;;;;5011789;28;20116;-85
2023/11/01 08:09:26;;;;;;;0.20;0.10;;;;;;;;;;5007474;28;20045;-84
2023/11/01 08:11:52;;;;;;;0.20;0.10;;;;;;;;;;5006245;28;20561;-84
2023/11/01 08:14:19;;;;;;;0.20;0.10;;;;;;;;;;5010022;28;20121;-83
2023/11/01 08:16:47;;;;;;;0.20;0.03;;;;;;;;;;5010257;28;20045;-83
2023/11/01 08:19:14;;;;;;;0.20;0.00;;;;;;;;;;5012867;28;20080;-83
2023/11/01 08:21:40;;;;;;;0.20;0.00;;;;;;;;;;5015009;28;20072;-82
2023/11/01 08:24:09;;;;;;;0.20;0.10;;;;;;;;;;5016540;28;20049;-84
2023/11/01 08:26:35;;;;;;;0.20;0.00;;;;;;;;;;5015377;28;20041;-83
2023/11/01 08:29:01;;;;;;;0.20;0.00;;;;;;;;;;5011898;28;20525;-84
2023/11/01 08:31:32;;;;;;;0.20;0.10;;;;;;;;;;5011314;28;20425;-84
2023/11/01 08:33:58;;;;;;;0.20;0.10;;;;;;;;;;5011107;28;20144;-83
2023/11/01 08:36:30;;;;;;;0.20;0.00;;;;;;;;;;5013471;28;20048;-84
2023/11/01 08:38:57;;;;;;;0.20;0.10;;;;;;;;;;5002203;28;20057;-83
2023/11/01 08:41:23;;;;;;;0.20;0.00;;;;;;;;;;5008817;28;20037;-84
2023/11/01 08:43:49;;;;;;;0.20;0.03;;;;;;;;;;5001229;28;20431;-84
2023/11/01 08:46:18;;;;;;;0.20;0.00;;;;;;;;;;5014791;28;20041;-85
2023/11/01 08:48:53;;;;;;;0.20;0.00;;;;;;;;;;5005306;28;20037;-85
2023/11/01 08:51:22;;;;;;;0.20;0.00;;;;;;;;;;5011243;28;20517;-84
2023/11/01 08:53:48;;;;;;;0.20;0.03;;;;;;;;;;5010363;28;20085;-84
2023/11/01 08:56:14;;;;;;;0.20;0.00;;;;;;;;;;5010358;28;20046;-83
2023/11/01 08:58:43;;;;;;;0.20;0.03;;;;;;;;;;5012671;28;20090;-84
2023/11/01 09:01:09;;;;;;;0.20;0.00;;;;;;;;;;5014301;28;20055;-84
2023/11/01 09:03:35;;;;;;;0.20;0.10;;;;;;;;;;5002500;28;20599;-83
2023/11/01 09:06:08;;;;;;;0.20;0.00;;;;;;;;;;4996363;28;20663;-82
2023/11/01 09:08:34;;;;;;;0.20;0.10;;;;;;;;;;5022898;28;20406;-86
2023/11/01 09:11:00;;;;;;;0.20;0.10;;;;;;;;;;5006401;28;20034;-87
2023/11/01 09:13:26;;;;;;;0.20;0.00;;;;;;;;;;5003204;28;20069;-84
2023/11/01 09:16:00;;;;;;;0.20;0.13;;;;;;;;;;5007999;28;20128;-84
2023/11/01 09:18:26;;;;;;;0.20;0.10;;;;;;;;;;5007114;28;20045;-86
2023/11/01 09:20:52;;;;;;;0.20;0.10;;;;;;;;;;5006808;28;20038;-84
2023/11/01 09:23:19;;;;;;;0.20;0.05;;;;;;;;;;5008453;28;20053;-84
2023/11/01 09:25:45;;;;;;;0.20;0.10;;;;;;;;;;5010097;28;20034;-85
2023/11/01 09:28:11;;;;;;;0.20;0.00;;;;;;;;;;5011934;28;20045;-85
2023/11/01 09:30:50;;;;;;;0.20;0.10;;;;;;;;;;5007536;28;20457;-86
2023/11/01 09:33:19;;;;;;;0.20;0.15;;;;;;;;;;5004521;28;20131;-84
2023/11/01 09:35:48;;;;;;;4.47;0.20;;;;;;;;;;4996824;28;20535;-85
2023/11/01 09:38:14;;;;;;;0.20;0.15;;;;;;;;;;4998985;28;20459;-85
2023/11/01 09:40:42;;;;;;;0.20;0.10;;;;;;;;;;5003688;28;20037;-84
2023/11/01 09:43:29;;;;;;;0.20;0.00;;;;;;;;;;5001480;28;20034;-86
2023/11/01 09:45:58;;;;;;;0.20;0.00;;;;;;;;;;5009458;28;20048;-83
2023/11/01 09:48:26;;;;;;;0.20;0.00;;;;;;;;;;5002681;28;20379;-84
2023/11/01 09:50:53;;;;;;;0.20;0.00;;;;;;;;;;5005549;28;20037;-85
2023/11/01 09:53:19;;;;;;;0.20;0.05;;;;;;;;;;5004144;28;20065;-86
2023/11/01 09:55:48;;;;;;;0.20;0.10;;;;;;;;;;5008146;28;20064;-84
2023/11/01 09:58:18;;;;;;;0.20;0.00;;;;;;;;;;5011766;28;20145;-85
2023/11/01 10:00:45;;;;;;;0.20;0.10;;;;;;;;;;5003611;28;20042;-85
2023/11/01 10:03:12;;;;;;;0.20;0.10;;;;;;;;;;5006290;28;20048;-84
2023/11/01 10:05:38;;;;;;;0.20;0.00;;;;;;;;;;5002706;28;20048;-85
2023/11/01 10:08:14;;;;;;;0.20;0.00;;;;;;;;;;5004858;28;20038;-85
2023/11/01 10:10:41;;;;;;;0.20;0.00;;;;;;;;;;5007169;28;20108;-84
2023/11/01 10:13:08;;;;;;;0.20;0.10;;;;;;;;;;5016008;28;20041;-83
2023/11/01 10:15:37;;;;;;;0.20;0.10;;;;;;;;;;5009417;28;20052;-85
2023/11/01 10:18:03;;;;;;;0.20;0.10;;;;;;;;;;5017672;28;20036;-83
2023/11/01 10:20:47;;;;;;;0.20;0.05;;;;;;;;;;5015600;28;20140;-87
2023/11/01 10:23:26;;;;;;;0.20;0.08;;;;;;;;;;5008455;28;20106;-85
2023/11/01 10:25:53;;;;;;;0.20;0.00;;;;;;;;;;5013002;28;20051;-87
2023/11/01 10:28:22;;;;;;;0.28;0.20;;;;;;;;;;5013311;28;20065;-85
2023/11/01 10:31:00;;;;;;;0.20;0.00;;;;;;;;;;5016574;28;20041;-86
2023/11/01 10:33:32;;;;;;;0.20;0.10;;;;;;;;;;5030747;28;20056;-85
2023/11/01 10:36:02;;;;;;;0.20;0.10;;;;;;;;;;5012520;28;20469;-83
2023/11/01 10:38:31;;;;;;;0.20;0.00;;;;;;;;;;5015601;28;20509;-85
2023/11/01 10:41:05;;;;;;;0.20;0.20;;;;;;;;;;5008877;28;20041;-86
2023/11/01 10:43:31;;;;;;;0.20;0.00;;;;;;;;;;5007844;28;20041;-83
2023/11/01 10:45:58;;;;;;;0.20;0.10;;;;;;;;;;5012750;28;20116;-86
2023/11/01 10:48:27;;;;;;;0.20;0.00;;;;;;;;;;5009389;28;20035;-85
2023/11/01 10:50:57;;;;;;;0.20;0.10;;;;;;;;;;5016679;28;20056;-85
2023/11/01 10:53:24;;;;;;;0.20;0.00;;;;;;;;;;5007985;28;20548;-85
2023/11/01 10:55:53;;;;;;;0.20;0.10;;;;;;;;;;5014329;28;20493;-87
2023/11/01 10:58:27;;;;;;;0.20;0.00;;;;;;;;;;5008664;28;20038;-84
2023/11/01 11:01:06;;;;;;;0.20;0.10;;;;;;;;;;5007228;28;20037;-83
2023/11/01 11:03:44;;;;;;;0.20;0.17;;;;;;;;;;5020536;28;20103;-81
2023/11/01 11:06:11;;;;;;;0.20;0.00;;;;;;;;;;5014027;28;20038;-84
2023/11/01 11:08:37;;;;;;;0.20;0.10;;;;;;;;;;5024329;28;20041;-85
2023/11/01 11:11:16;;;;;;;0.20;0.00;;;;;;;;;;5004824;28;20362;-84
2023/11/01 11:13:51;;;;;;;0.20;0.10;;;;;;;;;;5023179;28;20047;-85
2023/11/01 11:16:20;;;;;;;0.20;0.10;;;;;;;;;;5019970;28;20110;-86
2023/11/01 11:18:51;;;;;;;0.20;0.10;;;;;;;;;;5032832;28;20049;-86
2023/11/01 11:21:36;;;;;;;0.20;0.00;;;;;;;;;;5020156;28;20120;-85
2023/11/01 11:24:22;;;;;;;0.20;0.10;;;;;;;;;;5010815;28;20068;-88
2023/11/01 11:26:48;;;;;;;0.20;0.10;;;;;;;;;;5008634;28;20120;-83
2023/11/01 11:29:33;;;;;;;0.20;0.10;;;;;;;;;;5006179;28;20285;-88
2023/11/01 11:31:59;;;;;;;0.20;0.17;;;;;;;;;;5009890;28;20029;-84
2023/11/01 11:34:25;;;;;;;0.30;0.20;;;;;;;;;;5005793;28;20037;-82
2023/11/01 11:37:12;;;;;;;0.20;0.00;;;;;;;;;;5027552;28;20124;-83
2023/11/01 11:39:50;;;;;;;0.20;0.08;;;;;;;;;;5027226;28;20583;-84
2023/11/01 11:42:35;;;;;;;0.47;0.47;;;;;;;;;;5007007;28;20708;-83
2023/11/01 11:45:01;;;;;;;0.20;0.10;;;;;;;;;;5029651;22;20111;-89
2023/11/01 11:47:33;;;;;;;0.20;0.10;;;;;;;;;;5026976;28;20071;-89
2023/11/01 11:50:12;;;;;;;0.20;0.00;;;;;;;;;;5010528;28;20125;-87
2023/11/01 11:52:44;;;;;;;0.20;0.10;;;;;;;;;;5026685;28;20357;-84
2023/11/01 11:55:13;;;;;;;0.20;0.10;;;;;;;;;;5029438;28;20049;-91
2023/11/01 11:57:45;;;;;;;0.20;0.10;;;;;;;;;;5002794;28;20304;-85
2023/11/01 12:00:12;;;;;;;0.20;0.10;;;;;;;;;;5005411;28;20067;-88
2023/11/01 12:02:52;;;;;;;0.20;0.10;;;;;;;;;;5004456;28;20128;-89
2023/11/01 12:05:24;;;;;;;0.20;0.10;;;;;;;;;;5029792;28;20076;-89
2023/11/01 12:07:50;;;;;;;0.20;0.10;;;;;;;;;;5012791;28;20049;-87
2023/11/01 12:13:42;;;;;;;0.20;0.00;;;;;;;;;;5029357;28;20090;-87
2023/11/01 12:16:33;;;;;;;0.20;0.00;;;;;;;;;;5006236;28;20037;-87
2023/11/01 12:19:08;;;;;;;0.20;0.10;;;;;;;;;;5009713;28;20045;-88
2023/11/01 12:25:01;;;;;;;0.57;0.10;;;;;;;;;;5021547;28;20396;-89
2023/11/01 12:27:38;;;;;;;0.20;0.10;;;;;;;;;;5012408;28;20081;-87
2023/11/01 12:30:07;;;;;;;0.20;0.00;;;;;;;;;;5007231;28;20065;-88
2023/11/01 12:32:41;;;;;;;0.20;0.15;;;;;;;;;;5015267;28;20036;-88
2023/11/01 12:35:12;;;;;;;0.20;0.00;;;;;;;;;;5014020;28;20036;-88
2023/11/01 12:37:45;;;;;;;0.20;0.00;;;;;;;;;;5009204;28;20053;-90
2023/11/01 12:40:17;;;;;;;0.20;0.08;;;;;;;;;;5005774;28;20049;-86
2023/11/01 12:43:04;;;;;;;0.20;0.00;;;;;;;;;;5004322;28;20052;-88
2023/11/01 12:45:50;;;;;;;0.20;0.10;;;;;;;;;;5005165;28;20855;-89
2023/11/01 12:48:25;;;;;;;0.20;0.00;;;;;;;;;;5024166;28;20403;-88
2023/11/01 12:51:00;;;;;;;0.20;0.00;;;;;;;;;;5003840;28;20513;-86
2023/11/01 12:53:29;;;;;;;0.20;0.08;;;;;;;;;;5010578;28;20053;-88
2023/11/01 12:55:55;;;;;;;0.20;0.00;;;;;;;;;;5012206;28;20057;-87
2023/11/01 12:58:29;;;;;;;0.20;0.00;;;;;;;;;;5014392;28;20128;-86
2023/11/01 13:01:04;;;;;;;0.22;0.22;;;;;;;;;;5020935;28;20120;-88
2023/11/01 13:03:33;;;;;;;0.20;0.00;;;;;;;;;;5025172;28;20041;-86
2023/11/01 13:06:14;;;;;;;0.20;0.00;;;;;;;;;;5011533;28;20119;-86
2023/11/01 13:08:40;;;;;;;0.20;0.00;;;;;;;;;;5021122;28;20040;-88
2023/11/01 13:11:12;;;;;;;0.30;0.13;;;;;;;;;;5014986;28;20079;-91
2023/11/01 13:13:38;;;;;;;0.20;0.00;;;;;;;;;;5039808;28;20045;-89
2023/11/01 13:16:04;;;;;;;0.20;0.00;;;;;;;;;;5012958;28;20047;-87
2023/11/01 13:18:52;;;;;;;0.20;0.10;;;;;;;;;;5017831;28;20556;-84
2023/11/01 13:21:18;;;;;;;0.20;0.20;;;;;;;;;;5009571;28;20691;-87
2023/11/01 13:23:49;;;;;;;0.20;0.00;;;;;;;;;;5003864;28;20167;-88
2023/11/01 13:26:18;;;;;;;0.22;0.13;;;;;;;;;;5004302;28;20049;-89
2023/11/01 13:28:47;;;;;;;0.20;0.10;;;;;;;;;;5020981;28;20033;-86
2023/11/01 13:31:31;;;;;;;0.28;0.10;;;;;;;;;;5026176;28;20100;-87
2023/11/01 13:34:03;;;;;;;0.20;0.00;;;;;;;;;;5025004;28;20045;-88
2023/11/01 13:36:29;;;;;;;0.20;0.05;;;;;;;;;;5026004;28;20045;-88
2023/11/01 13:39:04;;;;;;;0.20;0.00;;;;;;;;;;5015637;28;20598;-88
2023/11/01 13:41:39;;;;;;;0.20;0.00;;;;;;;;;;5013193;28;20500;-88
2023/11/01 13:44:12;;;;;;;0.20;0.00;;;;;;;;;;5005270;28;20493;-86
2023/11/01 13:46:48;;;;;;;0.20;0.10;;;;;;;;;;5006276;28;20132;-83
2023/11/01 13:49:21;;;;;;;0.20;0.00;;;;;;;;;;5002760;28;20048;-86
2023/11/01 13:51:47;;;;;;;0.20;0.10;;;;;;;;;;5027204;28;20394;-90
2023/11/01 13:54:14;;;;;;;0.20;0.05;;;;;;;;;;5006233;28;20053;-87
2023/11/01 13:56:46;;;;;;;0.20;0.10;;;;;;;;;;5004585;28;20543;-86
2023/11/01 13:59:13;;;;;;;0.20;0.08;;;;;;;;;;5038550;28;20033;-86
2023/11/01 14:01:41;;;;;;;0.20;0.00;;;;;;;;;;5020363;28;20057;-89
2023/11/01 14:04:10;;;;;;;0.20;0.00;;;;;;;;;;5014578;28;20060;-87
2023/11/01 14:06:36;;;;;;;0.20;0.00;;;;;;;;;;5020243;28;20049;-85
2023/11/01 14:09:03;;;;;;;0.20;0.00;;;;;;;;;;5018786;28;20049;-85
2023/11/01 14:11:32;;;;;;;0.20;0.00;;;;;;;;;;5024128;28;20095;-89
2023/11/01 14:14:01;;;;;;;0.20;0.10;;;;;;;;;;5012009;28;20098;-86
2023/11/01 14:16:54;;;;;;;0.20;0.10;;;;;;;;;;5035116;28;20051;-88
2023/11/01 14:19:23;;;;;;;0.20;0.00;;;;;;;;;;5022250;28;20037;-88
2023/11/01 14:21:58;;;;;;;0.20;0.05;;;;;;;;;;5001927;28;20071;-88
2023/11/01 14:24:27;;;;;;;0.20;0.10;;;;;;;;;;5020095;28;20490;-86
2023/11/01 14:26:55;;;;;;;0.20;0.10;;;;;;;;;;5000880;28;20277;-86
2023/11/01 14:29:22;;;;;;;0.20;0.00;;;;;;;;;;5024397;28;20139;-84
2023/11/01 14:31:48;;;;;;;0.20;0.00;;;;;;;;;;5017526;28;20044;-85
2023/11/01 14:34:14;;;;;;;0.20;0.10;;;;;;;;;;5008316;28;20052;-88
2023/11/01 14:36:48;;;;;;;0.20;0.00;;;;;;;;;;5003174;28;20040;-84
2023/11/01 14:39:19;;;;;;;0.20;0.10;;;;;;;;;;5010329;28;20080;-88
2023/11/01 14:41:55;;;;;;;0.20;0.00;;;;;;;;;;5024943;28;20072;-86
2023/11/01 14:44:39;;;;;;;0.20;0.10;;;;;;;;;;5006185;28;20037;-86
2023/11/01 14:47:05;;;;;;;0.20;0.00;;;;;;;;;;5030449;28;20053;-83
2023/11/01 14:49:40;;;;;;;0.20;0.00;;;;;;;;;;5031022;28;20045;-86
2023/11/01 14:52:13;;;;;;;0.20;0.00;;;;;;;;;;5021731;28;20037;-87
2023/11/01 14:54:39;;;;;;;0.20;0.00;;;;;;;;;;5007563;28;20045;-85
2023/11/01 14:57:07;;;;;;;2.28;1.35;;;;;;;;;;5002614;28;20064;-87
2023/11/01 14:59:36;;;;;;;0.20;0.00;;;;;;;;;;5009893;28;20056;-86
2023/11/01 15:02:04;;;;;;;0.20;0.00;;;;;;;;;;5023773;28;20048;-85
2023/11/01 15:04:33;;;;;;;0.20;0.10;;;;;;;;;;5023819;28;20048;-86
2023/11/01 15:07:06;;;;;;;0.20;0.00;;;;;;;;;;5005045;28;20041;-87